Time;durP1;ratioP1;P1;durP2;ratioP2;P2;SDS_P1;SDS_P2;PMS_P1;PMS_P2;Temp;Humidity;BMP_temperature;BMP_pressure;BME280_temperature;BME280_humidity;BME280_pressure;Samples;Min_cycle;Max_cycle;Signal;HPM_P1;HPM_P2
2023/01/26 00:02:01;;;;;;;44.07;22.60;;;2.60;99.90;;;;;;5053945;28;20206;-85
2023/01/26 00:04:28;;;;;;;42.40;20.57;;;2.50;99.90;;;;;;5071567;28;20684;-86
2023/01/26 00:06:55;;;;;;;45.13;21.70;;;2.50;99.90;;;;;;5071741;28;20337;-86
2023/01/26 00:09:22;;;;;;;43.67;21.80;;;2.60;99.90;;;;;;5068659;28;20205;-86
2023/01/26 00:11:49;;;;;;;42.87;22.33;;;2.60;99.90;;;;;;5073967;28;20588;-85
2023/01/26 00:14:16;;;;;;;43.73;20.93;;;2.60;99.90;;;;;;5072273;28;20205;-86
2023/01/26 00:16:44;;;;;;;40.70;19.63;;;2.50;99.90;;;;;;5053780;28;20267;-84
2023/01/26 00:19:11;;;;;;;42.73;20.83;;;2.60;99.90;;;;;;5053934;28;20273;-86
2023/01/26 00:21:38;;;;;;;45.67;20.90;;;2.60;99.90;;;;;;5053148;28;20233;-86
2023/01/26 00:24:06;;;;;;;40.53;19.93;;;2.60;99.90;;;;;;5062035;28;20278;-85
2023/01/26 00:26:33;;;;;;;46.57;21.20;;;2.60;99.90;;;;;;5061790;28;20244;-85
2023/01/26 00:29:00;;;;;;;37.23;18.43;;;2.60;99.90;;;;;;5053594;28;20729;-86
2023/01/26 00:31:28;;;;;;;39.37;20.20;;;2.60;99.90;;;;;;5070980;28;20205;-86
2023/01/26 00:33:57;;;;;;;39.30;18.57;;;2.60;99.90;;;;;;5061787;28;20214;-85
2023/01/26 00:36:24;;;;;;;42.90;21.33;;;2.60;99.90;;;;;;5053519;28;20257;-86
2023/01/26 00:38:51;;;;;;;43.53;20.30;;;2.60;99.90;;;;;;5053459;28;20202;-86
2023/01/26 00:44:02;;;;;;;42.50;20.30;;;2.60;99.90;;;;;;5073302;28;20188;-85
2023/01/26 00:46:29;;;;;;;39.70;19.43;;;2.60;99.90;;;;;;5055553;28;20232;-84
2023/01/26 00:48:59;;;;;;;37.93;19.27;;;2.60;99.90;;;;;;5072223;28;20511;-85
2023/01/26 00:51:26;;;;;;;33.30;18.30;;;2.60;99.90;;;;;;5075275;28;20204;-86
2023/01/26 00:53:53;;;;;;;34.53;17.43;;;2.60;99.90;;;;;;5077234;28;20199;-83
2023/01/26 00:56:20;;;;;;;40.87;20.00;;;2.60;99.90;;;;;;5076288;28;20300;-85
2023/01/26 00:58:47;;;;;;;36.37;18.27;;;2.60;99.90;;;;;;5076934;28;20648;-85
2023/01/26 01:01:14;;;;;;;35.27;17.67;;;2.60;99.90;;;;;;5076338;28;20297;-85
2023/01/26 01:03:40;;;;;;;35.93;18.90;;;2.60;99.90;;;;;;5075255;28;20235;-83
2023/01/26 01:06:09;;;;;;;38.10;18.07;;;2.60;99.90;;;;;;5056624;28;20309;-87
2023/01/26 01:08:36;;;;;;;37.47;17.93;;;2.60;99.90;;;;;;5056786;28;20286;-86
2023/01/26 01:11:05;;;;;;;36.60;18.20;;;2.60;99.90;;;;;;5065967;28;20219;-87
2023/01/26 01:13:32;;;;;;;34.80;18.70;;;2.60;99.90;;;;;;5076784;28;20240;-87
2023/01/26 01:15:58;;;;;;;41.47;20.53;;;2.60;99.90;;;;;;5076604;28;20279;-85
2023/01/26 01:18:25;;;;;;;33.73;17.33;;;2.60;99.90;;;;;;5076675;28;20185;-86
2023/01/26 01:20:52;;;;;;;38.00;19.07;;;2.70;99.90;;;;;;5071001;28;20739;-85
2023/01/26 01:23:21;;;;;;;39.73;19.07;;;2.70;99.90;;;;;;5056270;28;20244;-84
2023/01/26 01:25:56;;;;;;;39.30;17.73;;;2.70;99.90;;;;;;5055715;28;20321;-85
2023/01/26 01:28:23;;;;;;;36.33;18.10;;;2.70;99.90;;;;;;5056738;28;20269;-85
2023/01/26 01:30:49;;;;;;;36.37;19.67;;;2.70;99.90;;;;;;5056162;28;20281;-85
2023/01/26 01:33:16;;;;;;;35.17;17.90;;;2.70;99.90;;;;;;5056031;28;20205;-85
2023/01/26 01:35:43;;;;;;;33.53;17.70;;;2.70;99.90;;;;;;5056410;28;20603;-85
2023/01/26 01:38:10;;;;;;;38.57;18.80;;;2.70;99.90;;;;;;5076088;28;20194;-85
2023/01/26 01:40:42;;;;;;;37.87;19.20;;;2.70;99.90;;;;;;5076162;28;20506;-84
2023/01/26 01:43:11;;;;;;;35.00;19.23;;;2.80;99.90;;;;;;5076063;28;20212;-85
2023/01/26 01:45:47;;;;;;;38.10;17.77;;;2.80;99.90;;;;;;5057066;28;20312;-84
2023/01/26 01:48:20;;;;;;;33.60;17.27;;;2.80;99.90;;;;;;5056315;28;20190;-85
2023/01/26 01:50:50;;;;;;;39.70;19.93;;;2.80;99.90;;;;;;5055785;28;20225;-84
2023/01/26 01:53:23;;;;;;;35.13;18.17;;;2.80;99.90;;;;;;5054355;28;20603;-86
2023/01/26 01:55:54;;;;;;;31.63;16.90;;;2.80;99.90;;;;;;5055218;28;20201;-85
2023/01/26 01:58:22;;;;;;;32.83;16.83;;;2.80;99.90;;;;;;5056810;28;20204;-85
2023/01/26 02:00:49;;;;;;;39.00;18.90;;;2.80;99.90;;;;;;5055945;28;20240;-86
2023/01/26 02:03:20;;;;;;;36.00;18.07;;;2.80;99.90;;;;;;5054553;28;20304;-85
2023/01/26 02:05:54;;;;;;;35.60;18.57;;;2.80;99.90;;;;;;5055562;28;20213;-85
2023/01/26 02:08:25;;;;;;;39.53;18.40;;;2.90;99.90;;;;;;5068160;28;20212;-85
2023/01/26 02:10:55;;;;;;;37.83;19.20;;;2.80;99.90;;;;;;5075722;28;20189;-85
2023/01/26 02:13:23;;;;;;;40.53;20.53;;;2.90;99.90;;;;;;5078037;28;20213;-86
2023/01/26 02:15:51;;;;;;;41.07;19.83;;;2.90;99.90;;;;;;5078367;28;20185;-87
2023/01/26 02:18:18;;;;;;;40.30;18.53;;;2.90;99.90;;;;;;5076372;28;20220;-86
2023/01/26 02:20:49;;;;;;;41.43;20.57;;;2.90;99.90;;;;;;5063532;28;20225;-86
2023/01/26 02:23:26;;;;;;;39.30;19.87;;;2.90;99.90;;;;;;5058370;28;20586;-85
2023/01/26 02:26:11;;;;;;;43.20;19.97;;;2.80;99.90;;;;;;5075993;28;20240;-85
2023/01/26 02:28:39;;;;;;;37.03;19.87;;;2.90;99.90;;;;;;5070098;28;20213;-86
2023/01/26 02:31:07;;;;;;;42.00;18.80;;;2.90;99.90;;;;;;5068238;28;20539;-86
2023/01/26 02:33:35;;;;;;;47.43;21.77;;;2.90;99.90;;;;;;5076329;28;20288;-85
2023/01/26 02:36:03;;;;;;;43.90;20.43;;;2.90;99.90;;;;;;5071292;28;20198;-84
2023/01/26 02:38:44;;;;;;;36.23;18.00;;;2.90;99.90;;;;;;5055500;28;20292;-86
2023/01/26 02:42:37;;;;;;;44.00;20.20;;;2.90;99.90;;;;;;5055063;28;20554;-85
2023/01/26 02:44:03;;;;;;;40.53;20.77;;;2.90;99.90;;;;;;5058074;28;20236;-87
2023/01/26 02:46:30;;;;;;;44.57;21.00;;;3.00;99.90;;;;;;5055932;28;20233;-85
2023/01/26 02:51:42;;;;;;;40.77;19.37;;;3.00;99.90;;;;;;5055112;28;20205;-82
2023/01/26 02:55:20;;;;;;;43.73;20.83;;;3.00;99.90;;;;;;5055676;28;20206;-84
2023/01/26 02:56:56;;;;;;;42.00;19.70;;;3.00;99.90;;;;;;5074432;28;20281;-85
2023/01/26 02:59:23;;;;;;;37.57;19.17;;;3.00;99.90;;;;;;5075383;28;20497;-85
2023/01/26 03:01:52;;;;;;;39.60;20.33;;;3.00;99.90;;;;;;5054861;28;20229;-85
2023/01/26 03:04:19;;;;;;;35.70;17.67;;;3.00;99.90;;;;;;5069382;28;20295;-85
2023/01/26 03:06:46;;;;;;;38.43;18.20;;;3.00;99.90;;;;;;5074483;28;20255;-85
2023/01/26 03:09:13;;;;;;;35.93;17.13;;;3.00;99.90;;;;;;5074372;28;20204;-85
2023/01/26 03:11:41;;;;;;;46.10;21.70;;;3.10;99.90;;;;;;5072269;28;20280;-85
2023/01/26 03:14:10;;;;;;;45.83;21.47;;;3.10;99.90;;;;;;5074461;28;20208;-86
2023/01/26 03:16:37;;;;;;;49.03;20.53;;;3.10;99.90;;;;;;5055918;28;20281;-86
2023/01/26 03:27:26;;;;;;;40.10;19.80;;;3.20;99.90;;;;;;5076116;28;20219;-86
2023/01/26 03:29:55;;;;;;;36.03;19.60;;;3.20;99.90;;;;;;5074429;28;20588;-85
2023/01/26 03:32:22;;;;;;;41.90;21.27;;;3.30;99.90;;;;;;5074207;28;20209;-85
2023/01/26 03:34:49;;;;;;;42.97;21.97;;;3.30;99.90;;;;;;5073874;28;20203;-83
2023/01/26 03:37:21;;;;;;;35.60;19.23;;;3.30;99.90;;;;;;5073915;28;20244;-85
2023/01/26 03:56:20;;;;;;;34.90;17.57;;;3.40;99.90;;;;;;5065425;28;20207;-86
2023/01/26 03:58:50;;;;;;;33.27;17.67;;;3.40;99.90;;;;;;5073956;28;20539;-86
2023/01/26 04:01:19;;;;;;;38.53;18.40;;;3.50;99.90;;;;;;5073754;28;20597;-85
2023/01/26 04:09:20;;;;;;;38.73;17.40;;;3.70;99.90;;;;;;5059616;28;20232;-86
2023/01/26 04:11:48;;;;;;;38.30;18.37;;;3.70;99.90;;;;;;5053066;28;20208;-85
2023/01/26 04:22:39;;;;;;;32.60;13.17;;;4.50;99.90;;;;;;5073299;28;20192;-85
2023/01/26 04:25:07;;;;;;;33.77;12.27;;;4.70;99.90;;;;;;5073909;28;20237;-85
2023/01/26 04:27:34;;;;;;;32.43;12.30;;;4.90;99.90;;;;;;5077861;28;20588;-85
2023/01/26 04:30:02;;;;;;;33.03;11.27;;;4.90;99.90;;;;;;5077590;28;20582;-85
2023/01/26 04:32:31;;;;;;;28.30;9.50;;;5.00;99.90;;;;;;5077606;28;20208;-86
2023/01/26 04:34:58;;;;;;;33.33;9.80;;;5.20;99.90;;;;;;5077257;28;20704;-85
2023/01/26 04:37:25;;;;;;;33.77;8.17;;;5.40;99.90;;;;;;5060928;28;20202;-86
2023/01/26 04:39:51;;;;;;;35.37;8.30;;;5.40;99.90;;;;;;5057823;28;20285;-85
2023/01/26 04:42:18;;;;;;;24.97;6.80;;;5.50;99.90;;;;;;5059883;28;20245;-86
2023/01/26 04:44:45;;;;;;;29.80;7.53;;;5.60;99.90;;;;;;5077404;28;20236;-85
2023/01/26 04:47:12;;;;;;;29.97;6.07;;;5.70;99.90;;;;;;5077470;28;20228;-86
2023/01/26 04:49:40;;;;;;;33.10;7.20;;;5.70;99.90;;;;;;5077280;28;20197;-87
2023/01/26 04:52:07;;;;;;;33.43;5.70;;;5.80;99.90;;;;;;5077261;28;20204;-86
2023/01/26 04:54:34;;;;;;;25.57;4.90;;;5.80;99.90;;;;;;5075235;28;20517;-85
2023/01/26 04:57:01;;;;;;;24.13;4.97;;;5.90;99.90;;;;;;5075968;28;20205;-85
2023/01/26 04:59:28;;;;;;;23.20;4.53;;;5.90;99.90;;;;;;5076866;28;20586;-83
2023/01/26 05:01:56;;;;;;;27.87;4.50;;;5.90;99.90;;;;;;5076396;28;20585;-84
2023/01/26 05:04:22;;;;;;;30.17;4.93;;;6.00;99.90;;;;;;5075387;28;20205;-85
2023/01/26 05:06:51;;;;;;;40.37;6.20;;;6.00;99.90;;;;;;5073438;28;20242;-84
2023/01/26 05:09:18;;;;;;;32.53;4.43;;;6.00;99.90;;;;;;5056604;28;20201;-84
2023/01/26 05:11:45;;;;;;;29.73;5.20;;;6.00;99.90;;;;;;5056906;28;20198;-84
2023/01/26 05:14:12;;;;;;;24.40;5.17;;;6.00;99.90;;;;;;5071103;28;20578;-84
2023/01/26 05:16:39;;;;;;;23.67;4.37;;;6.00;99.90;;;;;;5076802;28;20215;-85
2023/01/26 05:19:06;;;;;;;23.60;4.47;;;6.10;99.90;;;;;;5076533;28;20288;-84
2023/01/26 05:21:32;;;;;;;29.60;5.43;;;6.00;99.90;;;;;;5070413;28;20508;-85
2023/01/26 05:24:01;;;;;;;33.17;6.27;;;6.10;99.90;;;;;;5056644;28;20283;-83
2023/01/26 05:26:28;;;;;;;32.73;5.23;;;6.00;99.90;;;;;;5056401;28;20347;-85
2023/01/26 05:28:55;;;;;;;32.90;5.57;;;6.00;99.90;;;;;;5056368;28;20356;-86
2023/01/26 05:31:22;;;;;;;28.27;6.47;;;6.00;99.90;;;;;;5056695;28;20896;-86
2023/01/26 05:33:48;;;;;;;32.07;5.33;;;6.00;99.90;;;;;;5056412;28;20208;-86
2023/01/26 05:36:15;;;;;;;33.77;5.37;;;6.00;99.90;;;;;;5056273;28;20190;-85
2023/01/26 05:38:42;;;;;;;32.17;6.57;;;6.00;99.90;;;;;;5056655;28;20262;-85
2023/01/26 05:41:10;;;;;;;27.97;4.17;;;5.90;99.90;;;;;;5066647;28;20607;-86
2023/01/26 05:43:37;;;;;;;25.50;4.63;;;5.90;99.90;;;;;;5076221;28;20280;-86
2023/01/26 05:46:05;;;;;;;32.07;4.50;;;5.90;99.90;;;;;;5076131;28;20843;-86
2023/01/26 05:48:32;;;;;;;37.80;6.17;;;5.90;99.90;;;;;;5075998;28;20227;-85
2023/01/26 05:50:59;;;;;;;31.47;5.20;;;5.90;99.90;;;;;;5076385;28;20484;-86
2023/01/26 05:53:26;;;;;;;27.03;4.77;;;5.90;99.90;;;;;;5068055;28;20214;-86
2023/01/26 05:55:53;;;;;;;35.00;6.90;;;5.90;99.90;;;;;;5055856;28;20277;-85
2023/01/26 05:58:21;;;;;;;22.17;4.73;;;5.80;99.90;;;;;;5055706;28;20194;-86
2023/01/26 06:00:48;;;;;;;37.97;4.90;;;5.90;99.90;;;;;;5055752;28;20273;-84
2023/01/26 06:03:15;;;;;;;30.57;4.83;;;5.80;99.90;;;;;;5067033;28;20255;-85
2023/01/26 06:05:42;;;;;;;31.07;5.10;;;5.90;99.90;;;;;;5075204;28;20676;-85
2023/01/26 06:08:09;;;;;;;31.77;5.07;;;5.90;99.90;;;;;;5075818;28;20316;-86
2023/01/26 06:10:36;;;;;;;26.40;3.80;;;5.80;99.90;;;;;;5076013;28;20197;-85
2023/01/26 06:13:03;;;;;;;33.97;4.57;;;5.80;99.90;;;;;;5059121;28;20208;-85
2023/01/26 06:15:31;;;;;;;33.53;4.90;;;5.80;99.90;;;;;;5055652;28;20202;-86
2023/01/26 06:18:01;;;;;;;34.30;5.00;;;5.80;99.90;;;;;;5055445;28;20225;-84
2023/01/26 06:20:27;;;;;;;33.27;5.77;;;5.80;99.90;;;;;;5055644;28;20280;-86
2023/01/26 06:22:54;;;;;;;33.00;5.37;;;5.80;99.90;;;;;;5055265;28;20201;-84
2023/01/26 06:25:21;;;;;;;28.70;6.43;;;5.80;99.90;;;;;;5053931;28;20242;-86
2023/01/26 06:27:48;;;;;;;42.17;6.53;;;5.70;99.90;;;;;;5054507;28;20252;-85
2023/01/26 06:30:15;;;;;;;28.83;5.83;;;5.70;99.90;;;;;;5055284;28;20284;-85
2023/01/26 06:32:47;;;;;;;26.50;4.30;;;5.70;99.90;;;;;;5055008;28;20695;-84
2023/01/26 06:35:14;;;;;;;35.17;5.20;;;5.70;99.90;;;;;;5055020;28;20246;-85
2023/01/26 06:37:41;;;;;;;25.97;5.23;;;5.70;99.90;;;;;;5055247;28;20280;-85
2023/01/26 06:40:09;;;;;;;38.43;6.60;;;5.70;99.90;;;;;;5055138;28;20233;-84
2023/01/26 06:42:36;;;;;;;32.73;5.07;;;5.60;99.90;;;;;;5055150;28;20543;-85
2023/01/26 06:45:03;;;;;;;35.43;6.67;;;5.60;99.90;;;;;;5054789;28;20202;-84
2023/01/26 06:47:30;;;;;;;30.07;4.73;;;5.60;99.90;;;;;;5054725;28;20714;-84
2023/01/26 06:49:58;;;;;;;27.63;5.20;;;5.60;99.90;;;;;;5054055;28;20610;-84
2023/01/26 06:52:28;;;;;;;27.70;4.67;;;5.60;99.90;;;;;;5070889;22;20640;-85
2023/01/26 06:54:57;;;;;;;33.97;5.10;;;5.60;99.90;;;;;;5074692;28;20201;-84
2023/01/26 06:57:24;;;;;;;21.90;5.23;;;5.50;99.90;;;;;;5058228;28;20267;-85
2023/01/26 06:59:51;;;;;;;34.27;4.37;;;5.50;99.90;;;;;;5054674;28;20196;-84
2023/01/26 07:02:20;;;;;;;35.47;4.93;;;5.40;99.90;;;;;;5054085;28;20210;-84
2023/01/26 07:04:47;;;;;;;27.87;4.80;;;5.40;99.90;;;;;;5053997;28;20197;-85
2023/01/26 07:07:15;;;;;;;21.80;4.03;;;5.40;99.90;;;;;;5053697;28;20281;-85
2023/01/26 07:09:42;;;;;;;24.70;4.37;;;5.40;99.90;;;;;;5055000;28;20276;-86
2023/01/26 07:12:09;;;;;;;22.97;4.70;;;5.40;99.90;;;;;;5068479;28;20232;-85
2023/01/26 07:14:36;;;;;;;19.87;3.90;;;5.40;99.90;;;;;;5074137;28;20511;-84
2023/01/26 07:17:03;;;;;;;23.40;4.87;;;5.30;99.90;;;;;;5073578;28;20193;-84
2023/01/26 07:19:32;;;;;;;26.97;5.10;;;5.30;99.90;;;;;;5060030;28;20229;-84
2023/01/26 07:21:59;;;;;;;25.57;4.67;;;5.30;99.90;;;;;;5057626;28;20233;-84
2023/01/26 07:24:27;;;;;;;35.70;4.63;;;5.20;99.90;;;;;;5073647;28;20213;-86
2023/01/26 07:26:55;;;;;;;24.53;5.60;;;5.20;99.90;;;;;;5074123;28;20201;-86
2023/01/26 07:29:22;;;;;;;27.10;5.27;;;5.10;99.90;;;;;;5071689;28;20225;-86
2023/01/26 07:31:49;;;;;;;34.13;6.57;;;5.00;99.90;;;;;;5073807;28;20288;-86
2023/01/26 07:34:16;;;;;;;26.80;4.87;;;5.00;99.90;;;;;;5074125;28;20200;-85
2023/01/26 07:36:44;;;;;;;24.30;4.43;;;5.00;99.90;;;;;;5073730;28;20209;-85
2023/01/26 07:39:11;;;;;;;26.87;4.53;;;5.00;99.90;;;;;;5066855;28;20749;-86
2023/01/26 07:41:39;;;;;;;26.43;4.17;;;5.00;99.90;;;;;;5053262;28;20285;-86
2023/01/26 07:44:10;;;;;;;25.10;5.10;;;5.00;99.90;;;;;;5052491;28;20554;-84
2023/01/26 07:46:37;;;;;;;19.37;3.53;;;5.00;99.90;;;;;;5053858;28;20641;-85
2023/01/26 07:49:03;;;;;;;22.47;4.23;;;5.00;99.90;;;;;;5054117;28;20225;-85
2023/01/26 07:51:30;;;;;;;29.10;4.47;;;5.00;99.90;;;;;;5053859;28;20277;-85
2023/01/26 07:53:57;;;;;;;25.50;4.37;;;5.00;99.90;;;;;;5054266;28;20196;-88
2023/01/26 07:56:24;;;;;;;32.43;5.33;;;4.90;99.90;;;;;;5052583;28;20194;-86
2023/01/26 07:58:54;;;;;;;23.93;4.53;;;4.90;99.90;;;;;;5072693;28;20209;-84
2023/01/26 08:01:21;;;;;;;31.23;5.80;;;4.90;99.90;;;;;;5076484;28;20556;-84
2023/01/26 08:03:52;;;;;;;26.40;4.80;;;5.00;99.90;;;;;;5077812;28;20197;-84
2023/01/26 08:06:20;;;;;;;34.03;4.30;;;5.10;99.90;;;;;;5077563;28;20234;-85
2023/01/26 08:08:49;;;;;;;28.87;5.20;;;5.10;99.90;;;;;;5078063;28;20217;-83
2023/01/26 08:11:18;;;;;;;24.80;5.03;;;5.10;99.90;;;;;;5061921;28;20210;-85
2023/01/26 08:13:45;;;;;;;18.70;4.30;;;5.10;99.90;;;;;;5062731;28;20207;-85
2023/01/26 08:16:14;;;;;;;26.83;5.30;;;5.10;99.90;;;;;;5077926;28;20197;-83
2023/01/26 08:18:42;;;;;;;40.77;6.90;;;5.10;99.90;;;;;;5073121;28;20232;-85
2023/01/26 08:21:09;;;;;;;28.80;5.50;;;5.10;99.90;;;;;;5078166;28;20252;-84
2023/01/26 08:23:36;;;;;;;27.63;5.30;;;5.10;99.90;;;;;;5073812;28;20203;-84
2023/01/26 08:26:05;;;;;;;24.87;5.10;;;5.20;99.90;;;;;;5077235;28;20614;-82
2023/01/26 08:28:32;;;;;;;38.43;5.90;;;5.30;99.90;;;;;;5076027;28;20229;-84
2023/01/26 08:31:07;;;;;;;26.40;4.40;;;5.30;99.90;;;;;;5069880;28;20208;-82
2023/01/26 08:33:35;;;;;;;28.83;4.70;;;5.30;99.90;;;;;;5064554;28;20201;-83
2023/01/26 08:36:02;;;;;;;22.97;4.70;;;5.30;99.90;;;;;;5076568;28;20544;-82
2023/01/26 08:38:30;;;;;;;27.90;4.47;;;5.30;99.90;;;;;;5072364;28;20221;-83
2023/01/26 08:40:57;;;;;;;28.47;4.20;;;5.40;99.90;;;;;;5068500;28;20657;-82
2023/01/26 08:43:23;;;;;;;32.97;4.93;;;5.30;99.90;;;;;;5075275;28;20203;-81
2023/01/26 08:45:50;;;;;;;19.93;5.37;;;5.40;99.90;;;;;;5072064;28;20217;-82
2023/01/26 08:48:18;;;;;;;26.53;6.13;;;5.40;99.90;;;;;;5056585;28;20275;-82
2023/01/26 08:50:46;;;;;;;29.83;4.80;;;5.40;99.90;;;;;;5062137;28;20877;-82
2023/01/26 08:53:13;;;;;;;23.97;4.67;;;5.50;99.90;;;;;;5056829;28;20317;-84
2023/01/26 08:55:40;;;;;;;24.03;4.90;;;5.40;99.90;;;;;;5074983;28;20201;-86
2023/01/26 08:58:07;;;;;;;17.90;4.20;;;5.50;99.90;;;;;;5076715;28;20198;-84
2023/01/26 09:00:34;;;;;;;23.90;4.27;;;5.50;99.90;;;;;;5061558;28;20618;-86
2023/01/26 09:03:02;;;;;;;26.03;5.43;;;5.60;99.90;;;;;;5057100;28;20229;-84
2023/01/26 09:05:32;;;;;;;19.97;4.20;;;5.60;99.90;;;;;;5056359;28;20198;-85
2023/01/26 09:08:01;;;;;;;24.67;5.23;;;5.70;99.90;;;;;;5055971;28;20297;-86
2023/01/26 09:10:28;;;;;;;25.23;5.10;;;5.70;99.90;;;;;;5054883;28;20229;-86
2023/01/26 09:12:57;;;;;;;29.70;4.23;;;5.80;99.90;;;;;;5053651;28;20225;-86
2023/01/26 09:15:24;;;;;;;21.83;3.97;;;5.80;99.90;;;;;;5053812;28;20289;-87
2023/01/26 09:17:52;;;;;;;24.03;5.10;;;5.80;99.90;;;;;;5057314;28;20277;-88
2023/01/26 09:20:19;;;;;;;36.03;5.47;;;5.90;99.90;;;;;;5056870;28;20559;-86
2023/01/26 09:22:47;;;;;;;15.70;4.20;;;5.90;99.90;;;;;;5065851;28;20597;-85
2023/01/26 09:25:16;;;;;;;25.77;4.80;;;5.90;99.90;;;;;;5075698;28;20224;-86
2023/01/26 09:27:43;;;;;;;25.33;5.20;;;6.00;99.90;;;;;;5076296;28;20284;-85
2023/01/26 09:30:11;;;;;;;19.30;4.70;;;6.00;99.90;;;;;;5077342;28;20190;-86
2023/01/26 09:32:39;;;;;;;25.20;3.97;;;6.00;99.90;;;;;;5076853;28;20292;-83
2023/01/26 09:35:10;;;;;;;18.37;4.07;;;6.00;99.90;;;;;;5075237;28;20193;-83
2023/01/26 09:37:37;;;;;;;24.63;4.20;;;6.00;99.90;;;;;;5075239;28;20201;-83
2023/01/26 09:40:05;;;;;;;23.00;4.07;;;6.10;99.90;;;;;;5071011;28;20229;-83
2023/01/26 09:42:48;;;;;;;23.70;4.13;;;6.20;99.90;;;;;;5055183;28;20563;-82
2023/01/26 09:45:29;;;;;;;25.87;4.57;;;6.20;99.90;;;;;;5065779;28;20227;-83
2023/01/26 09:48:09;;;;;;;21.97;4.17;;;6.20;99.90;;;;;;5074634;28;20687;-82
2023/01/26 09:50:40;;;;;;;21.73;3.93;;;6.40;99.90;;;;;;5068767;28;20201;-82
2023/01/26 09:53:14;;;;;;;29.63;4.70;;;6.50;99.90;;;;;;5055023;28;20261;-83
2023/01/26 09:55:42;;;;;;;19.87;3.83;;;6.50;99.90;;;;;;5054966;28;20405;-83
2023/01/26 09:58:17;;;;;;;15.17;3.97;;;6.60;99.90;;;;;;5054696;28;20294;-84
2023/01/26 10:00:48;;;;;;;22.00;3.60;;;6.70;99.90;;;;;;5055387;28;20194;-81
2023/01/26 10:03:23;;;;;;;24.67;4.43;;;6.70;99.90;;;;;;5064548;28;20201;-81
2023/01/26 10:05:54;;;;;;;23.50;5.63;;;6.70;99.90;;;;;;5073871;28;20208;-84
2023/01/26 10:08:22;;;;;;;26.77;4.30;;;6.80;99.90;;;;;;5074904;28;20290;-83
2023/01/26 10:10:53;;;;;;;13.40;4.07;;;6.80;99.90;;;;;;5074478;28;20201;-83
2023/01/26 10:13:23;;;;;;;26.83;4.47;;;6.80;99.90;;;;;;5069917;28;20194;-83
2023/01/26 10:15:56;;;;;;;23.50;4.13;;;6.90;99.90;;;;;;5053150;28;20201;-83
2023/01/26 10:18:28;;;;;;;23.73;4.37;;;6.90;99.90;;;;;;5053824;28;20479;-82
2023/01/26 10:20:58;;;;;;;15.30;3.50;;;7.00;99.90;;;;;;5054427;28;20238;-82
2023/01/26 10:23:27;;;;;;;17.33;3.60;;;7.00;99.90;;;;;;5053792;28;20212;-83
2023/01/26 10:26:01;;;;;;;19.53;4.00;;;7.10;99.90;;;;;;5054345;28;20267;-82
2023/01/26 10:28:33;;;;;;;19.03;4.13;;;7.10;99.90;;;;;;5064739;28;20220;-82
2023/01/26 10:31:03;;;;;;;15.97;4.13;;;7.20;99.90;;;;;;5074277;28;20207;-83
2023/01/26 10:33:33;;;;;;;23.43;4.03;;;7.30;99.90;;;;;;5072430;28;20288;-83
2023/01/26 10:36:00;;;;;;;17.60;3.30;;;7.30;99.90;;;;;;5054289;28;20284;-81
2023/01/26 10:38:43;;;;;;;27.57;4.43;;;7.30;99.90;;;;;;5065923;28;20603;-83
2023/01/26 10:41:26;;;;;;;21.23;3.37;;;7.40;99.90;;;;;;5069669;28;20211;-83
2023/01/26 10:43:57;;;;;;;21.53;4.43;;;7.40;99.90;;;;;;5051180;28;20212;-84
2023/01/26 10:46:30;;;;;;;18.83;4.57;;;7.50;99.90;;;;;;5060662;28;20224;-83
2023/01/26 10:49:00;;;;;;;16.50;5.03;;;7.50;99.90;;;;;;5070845;28;20237;-83
2023/01/26 10:51:30;;;;;;;14.80;3.80;;;7.60;99.90;;;;;;5053944;28;20563;-83
2023/01/26 10:54:29;;;;;;;17.60;4.00;;;7.70;99.90;;;;;;5067292;28;20549;-83
2023/01/26 10:56:59;;;;;;;20.10;3.70;;;7.80;99.90;;;;;;4980705;28;20205;-84
2023/01/26 10:59:30;;;;;;;17.23;3.33;;;7.90;99.90;;;;;;4953704;28;20572;-82
2023/01/26 11:02:01;;;;;;;20.10;3.70;;;7.90;99.90;;;;;;4984359;28;20197;-84
2023/01/26 11:04:28;;;;;;;15.87;3.67;;;7.90;99.90;;;;;;5054421;28;20608;-85
2023/01/26 11:06:55;;;;;;;20.17;3.83;;;7.90;99.90;;;;;;5054082;28;20210;-83
2023/01/26 11:09:26;;;;;;;26.70;4.10;;;7.90;99.90;;;;;;5053966;28;20230;-85
2023/01/26 11:11:59;;;;;;;20.33;3.97;;;8.00;99.90;;;;;;5054149;28;20281;-85
2023/01/26 11:14:28;;;;;;;15.33;3.40;;;8.00;99.90;;;;;;5053939;28;20232;-87
2023/01/26 11:17:00;;;;;;;17.57;3.83;;;8.10;99.90;;;;;;5062431;28;20201;-84
2023/01/26 11:19:47;;;;;;;19.97;3.67;;;8.10;99.90;;;;;;5074425;28;20522;-84
2023/01/26 11:22:19;;;;;;;30.00;4.80;;;8.20;99.90;;;;;;5074339;28;20516;-81
2023/01/26 11:24:55;;;;;;;17.50;4.23;;;8.20;99.90;;;;;;5074370;28;20188;-89
2023/01/26 11:27:40;;;;;;;15.43;3.33;;;8.20;99.90;;;;;;5074508;28;20736;-90
2023/01/26 11:30:32;;;;;;;14.47;3.70;;;8.20;99.90;;;;;;5068344;28;20638;-91
2023/01/26 11:33:06;;;;;;;18.83;4.10;;;8.30;99.90;;;;;;5055449;28;20216;-91
2023/01/26 11:35:43;;;;;;;20.53;4.00;;;8.30;99.90;;;;;;5074348;28;20195;-86
2023/01/26 11:38:25;;;;;;;23.50;4.27;;;8.30;99.90;;;;;;5074224;28;20300;-86
2023/01/26 11:41:01;;;;;;;11.73;2.70;;;8.30;99.90;;;;;;5074738;28;20201;-86
2023/01/26 11:43:49;;;;;;;16.23;3.10;;;8.30;99.90;;;;;;5074353;28;20200;-90
2023/01/26 11:46:37;;;;;;;19.27;3.70;;;8.30;99.90;;;;;;5074695;28;20244;-90
2023/01/26 11:49:18;;;;;;;21.53;4.13;;;8.30;99.90;;;;;;5074568;28;20648;-88
2023/01/26 11:51:58;;;;;;;19.17;4.23;;;8.30;99.90;;;;;;5067837;28;20320;-85
2023/01/26 11:54:41;;;;;;;18.27;3.63;;;8.30;99.90;;;;;;5054672;28;20281;-89
2023/01/26 11:57:19;;;;;;;13.20;2.90;;;8.30;99.90;;;;;;5054738;28;20194;-87
2023/01/26 11:59:51;;;;;;;16.27;3.37;;;8.20;99.90;;;;;;5054419;28;20198;-87
2023/01/26 12:02:27;;;;;;;15.00;4.53;;;8.20;99.90;;;;;;5073375;28;20212;-83
2023/01/26 12:04:56;;;;;;;19.30;3.90;;;8.30;99.90;;;;;;5074139;28;20199;-87
2023/01/26 12:07:28;;;;;;;11.33;2.97;;;8.40;99.90;;;;;;5074223;28;20200;-87
2023/01/26 12:09:55;;;;;;;21.47;4.43;;;8.40;99.90;;;;;;5054728;28;20222;-88
2023/01/26 12:12:30;;;;;;;23.50;4.10;;;8.40;99.90;;;;;;5054117;28;20205;-88
2023/01/26 12:15:03;;;;;;;12.47;3.50;;;8.50;99.90;;;;;;5072406;28;20244;-87
2023/01/26 12:17:44;;;;;;;18.03;4.23;;;8.50;99.90;;;;;;5073834;28;20200;-88
2023/01/26 12:20:25;;;;;;;25.20;3.13;;;8.60;99.90;;;;;;5073956;28;20255;-86
2023/01/26 12:22:58;;;;;;;20.77;4.73;;;8.60;99.90;;;;;;5060584;28;20205;-87
2023/01/26 12:25:31;;;;;;;14.77;2.87;;;8.60;99.90;;;;;;5054164;28;20228;-88
2023/01/26 12:28:10;;;;;;;18.77;3.47;;;8.60;99.90;;;;;;5054860;28;20224;-88
2023/01/26 12:30:45;;;;;;;15.13;3.47;;;8.60;99.90;;;;;;5457571;22;20243;-85
2023/01/26 12:33:14;;;;;;;21.73;3.30;;;8.70;99.90;;;;;;5051452;28;20189;-85
2023/01/26 12:36:00;;;;;;;14.33;2.67;;;8.70;99.90;;;;;;5052625;28;20220;-86
2023/01/26 12:38:45;;;;;;;15.17;2.93;;;8.70;99.90;;;;;;5053609;28;20197;-87
2023/01/26 12:41:23;;;;;;;15.40;2.93;;;8.70;99.90;;;;;;5067408;28;20288;-86
2023/01/26 12:44:03;;;;;;;12.00;2.63;;;8.80;99.90;;;;;;5070528;28;20331;-85
2023/01/26 12:46:35;;;;;;;15.80;3.27;;;8.80;99.90;;;;;;5073421;28;20612;-85
2023/01/26 12:49:09;;;;;;;13.90;4.10;;;8.90;99.90;;;;;;5070708;28;20206;-85
2023/01/26 12:51:41;;;;;;;12.80;2.73;;;8.90;99.90;;;;;;5068023;28;20611;-88
2023/01/26 12:54:16;;;;;;;10.37;2.67;;;8.80;99.90;;;;;;5074612;28;20232;-86
2023/01/26 12:56:48;;;;;;;10.97;2.00;;;8.90;99.90;;;;;;5064051;28;20212;-87
2023/01/26 12:59:18;;;;;;;9.90;1.97;;;8.80;99.90;;;;;;5075737;28;20201;-86
2023/01/26 13:01:45;;;;;;;5.93;2.03;;;8.80;99.90;;;;;;5076900;28;20565;-87
2023/01/26 13:04:16;;;;;;;15.47;2.77;;;8.80;99.90;;;;;;5072376;28;20217;-87
2023/01/26 13:06:43;;;;;;;8.50;1.60;;;8.80;99.90;;;;;;5073660;28;20229;-88
2023/01/26 13:09:22;;;;;;;11.13;2.50;;;8.80;99.90;;;;;;5077595;28;20689;-90
2023/01/26 13:11:52;;;;;;;15.83;3.00;;;8.80;99.90;;;;;;5073731;28;20215;-87
2023/01/26 13:14:33;;;;;;;19.80;3.17;;;8.70;99.90;;;;;;5075104;28;20213;-87
2023/01/26 13:17:39;;;;;;;11.87;2.43;;;8.70;99.90;;;;;;5075438;28;20213;-88
2023/01/26 13:20:41;;;;;;;13.97;2.93;;;8.70;99.90;;;;;;5053669;28;20637;-87
2023/01/26 13:23:50;;;;;;;10.27;2.30;;;8.50;99.90;;;;;;5063988;28;20202;-87
2023/01/26 13:26:33;;;;;;;16.23;3.17;;;8.50;99.90;;;;;;5066535;28;20289;-85
2023/01/26 13:29:30;;;;;;;14.33;2.70;;;8.40;99.90;;;;;;5060899;28;20504;-85
2023/01/26 13:31:59;;;;;;;9.83;2.27;;;8.40;99.90;;;;;;5059733;28;20223;-86
2023/01/26 13:34:30;;;;;;;12.20;2.30;;;8.40;99.90;;;;;;5075954;28;20217;-87
2023/01/26 13:37:08;;;;;;;11.33;2.70;;;8.40;99.90;;;;;;5075181;28;20534;-87
2023/01/26 13:39:37;;;;;;;13.37;3.30;;;8.30;99.90;;;;;;5058316;28;20223;-88
2023/01/26 13:42:19;;;;;;;15.97;2.77;;;8.40;99.90;;;;;;5073784;28;20256;-87
2023/01/26 13:44:51;;;;;;;17.60;3.40;;;8.40;99.90;;;;;;5075350;28;20738;-87